createdAt,value
2018-07-31T00:00:29.468Z,26.70
2018-07-31T00:02:56.437Z,26.70
2018-07-31T00:05:23.271Z,26.70
2018-07-31T00:07:50.262Z,26.70
2018-07-31T00:10:17.212Z,26.70
2018-07-31T00:12:44.070Z,26.70
2018-07-31T00:15:10.986Z,26.70
2018-07-31T00:17:37.994Z,26.70
2018-07-31T00:22:32.154Z,26.70
2018-07-31T00:24:58.995Z,26.60
2018-07-31T00:27:25.975Z,26.70
2018-07-31T00:29:52.830Z,26.60
2018-07-31T00:32:19.673Z,26.70
2018-07-31T00:34:46.509Z,26.70
2018-07-31T00:37:13.357Z,26.60
2018-07-31T00:39:40.219Z,26.60
2018-07-31T00:42:07.070Z,26.60
2018-07-31T00:44:33.939Z,26.60
2018-07-31T00:47:00.781Z,26.60
2018-07-31T00:49:27.618Z,26.60
2018-07-31T00:51:54.465Z,26.60
2018-07-31T00:54:21.322Z,26.60
2018-07-31T00:56:48.174Z,26.60
2018-07-31T00:59:15.149Z,26.60
2018-07-31T01:01:41.961Z,26.60
2018-07-31T01:04:08.822Z,26.60
2018-07-31T01:06:35.677Z,26.60
2018-07-31T01:09:02.700Z,26.60
2018-07-31T01:11:29.572Z,26.60
2018-07-31T01:13:56.445Z,26.60
2018-07-31T01:16:23.377Z,26.60
2018-07-31T01:18:50.330Z,26.60
2018-07-31T01:21:17.253Z,26.60
2018-07-31T01:23:44.119Z,26.60
2018-07-31T01:26:10.985Z,26.60
2018-07-31T01:28:37.869Z,26.60
2018-07-31T01:31:04.747Z,26.60
2018-07-31T01:33:31.589Z,26.50
2018-07-31T01:35:58.449Z,26.60
2018-07-31T01:38:25.478Z,26.50
2018-07-31T01:40:52.321Z,26.50
2018-07-31T01:43:19.435Z,26.50
2018-07-31T01:45:46.332Z,26.50
2018-07-31T01:48:13.246Z,26.50
2018-07-31T01:50:40.136Z,26.50
2018-07-31T01:53:06.983Z,26.50
2018-07-31T01:55:33.842Z,26.50
2018-07-31T01:58:00.800Z,26.50
2018-07-31T02:00:27.834Z,26.50
2018-07-31T02:02:54.862Z,26.50
2018-07-31T02:05:21.719Z,26.50
2018-07-31T02:07:48.816Z,26.50
2018-07-31T02:10:15.658Z,26.50
2018-07-31T02:12:42.568Z,26.50
2018-07-31T02:15:09.704Z,26.50
2018-07-31T02:17:36.800Z,26.50
2018-07-31T02:20:07.522Z,26.50
2018-07-31T02:22:34.403Z,26.40
2018-07-31T02:25:01.246Z,26.50
2018-07-31T02:27:28.263Z,26.50
2018-07-31T02:29:55.111Z,26.40
2018-07-31T02:32:21.986Z,26.40
2018-07-31T02:34:48.855Z,26.40
2018-07-31T02:37:15.776Z,26.40
2018-07-31T02:39:42.628Z,26.40
2018-07-31T02:42:09.472Z,26.40
2018-07-31T02:44:36.316Z,26.40
2018-07-31T02:47:03.232Z,26.40
2018-07-31T02:49:29.996Z,26.40
2018-07-31T02:51:56.854Z,26.40
2018-07-31T02:54:23.697Z,26.40
2018-07-31T02:56:50.680Z,26.40
2018-07-31T03:01:44.768Z,26.40
2018-07-31T03:04:11.678Z,26.40
2018-07-31T03:06:38.582Z,26.40
2018-07-31T03:09:05.610Z,26.40
2018-07-31T03:11:32.631Z,26.40
2018-07-31T03:13:59.462Z,26.40
2018-07-31T03:16:26.314Z,26.40
2018-07-31T03:18:53.181Z,26.40
2018-07-31T03:21:19.998Z,26.40
2018-07-31T03:23:46.825Z,26.40
2018-07-31T03:26:13.656Z,26.40
2018-07-31T03:28:40.543Z,26.30
2018-07-31T03:31:07.410Z,26.40
2018-07-31T03:33:34.236Z,26.30
2018-07-31T03:36:01.072Z,26.40
2018-07-31T03:38:28.108Z,26.30
2018-07-31T03:40:54.971Z,26.30
2018-07-31T03:43:21.821Z,26.30
2018-07-31T03:45:48.729Z,26.30
2018-07-31T03:48:15.742Z,26.30
2018-07-31T03:50:42.561Z,26.30
2018-07-31T03:53:09.443Z,26.30
2018-07-31T03:55:36.298Z,26.30
2018-07-31T03:58:03.314Z,26.30
2018-07-31T04:00:30.237Z,26.30
2018-07-31T04:02:57.077Z,26.30
2018-07-31T04:05:23.972Z,26.30
2018-07-31T04:07:50.916Z,26.30
2018-07-31T04:10:17.792Z,26.30
2018-07-31T04:12:44.697Z,26.30
2018-07-31T04:15:11.534Z,26.30
2018-07-31T04:17:38.642Z,26.30
2018-07-31T04:20:05.527Z,26.10
2018-07-31T04:22:32.355Z,25.90
2018-07-31T04:24:59.216Z,25.10
2018-07-31T04:27:26.177Z,24.70
2018-07-31T04:29:53.010Z,24.40
2018-07-31T04:32:19.862Z,24.30
2018-07-31T04:34:46.714Z,24.40
2018-07-31T04:37:13.548Z,24.50
2018-07-31T04:39:40.411Z,24.40
2018-07-31T04:42:07.331Z,24.30
2018-07-31T04:44:34.147Z,24.20
2018-07-31T04:47:01.014Z,24.20
2018-07-31T04:49:27.846Z,24.30
2018-07-31T04:51:54.705Z,24.30
2018-07-31T04:54:21.601Z,24.20
2018-07-31T04:56:48.564Z,24.10
2018-07-31T04:59:15.661Z,24.10
2018-07-31T05:01:42.466Z,24.00
2018-07-31T05:04:09.409Z,24.10
2018-07-31T05:06:36.290Z,24.10
2018-07-31T05:09:03.402Z,24.10
2018-07-31T05:11:30.234Z,24.10
2018-07-31T05:13:57.084Z,24.00
2018-07-31T05:16:23.952Z,24.00
2018-07-31T05:18:50.908Z,24.10
2018-07-31T05:21:17.789Z,24.10
2018-07-31T05:23:44.637Z,24.10
2018-07-31T05:26:11.502Z,24.10
2018-07-31T05:28:38.552Z,24.20
2018-07-31T05:31:05.392Z,24.30
2018-07-31T05:33:32.272Z,24.30
2018-07-31T05:35:59.114Z,24.30
2018-07-31T05:38:26.069Z,24.30
2018-07-31T05:40:52.933Z,24.40
2018-07-31T05:43:19.786Z,24.50
2018-07-31T05:45:46.619Z,24.50
2018-07-31T05:48:13.622Z,24.50
2018-07-31T05:50:40.484Z,24.60
2018-07-31T05:53:07.359Z,24.80
2018-07-31T05:55:34.195Z,25.10
2018-07-31T05:58:01.207Z,25.30
2018-07-31T06:00:28.040Z,25.40
2018-07-31T06:02:54.911Z,25.50
2018-07-31T06:05:21.791Z,25.60
2018-07-31T06:07:48.797Z,25.60
2018-07-31T06:10:15.726Z,25.70
2018-07-31T06:12:42.601Z,25.80
2018-07-31T06:15:09.475Z,25.80
2018-07-31T06:17:36.371Z,25.80
2018-07-31T06:20:03.250Z,25.80
2018-07-31T06:22:30.082Z,25.90
2018-07-31T06:24:56.941Z,25.90
2018-07-31T06:27:23.939Z,25.90
2018-07-31T06:29:50.810Z,25.90
2018-07-31T06:32:18.272Z,25.90
2018-07-31T06:34:45.087Z,25.90
2018-07-31T06:37:11.937Z,25.90
2018-07-31T06:39:38.828Z,26.00
2018-07-31T06:42:05.768Z,26.00
2018-07-31T06:44:32.746Z,26.00
2018-07-31T06:46:59.589Z,26.10
2018-07-31T06:49:26.426Z,26.00
2018-07-31T06:51:53.293Z,26.10
2018-07-31T06:54:20.139Z,26.10
2018-07-31T06:56:47.004Z,26.10
2018-07-31T06:59:13.931Z,26.10
2018-07-31T07:01:40.995Z,26.10
2018-07-31T07:04:07.822Z,26.20
2018-07-31T07:06:34.654Z,26.20
2018-07-31T07:09:01.644Z,26.20
2018-07-31T07:11:28.507Z,26.20
2018-07-31T07:13:55.330Z,26.30
2018-07-31T07:16:22.175Z,26.30
2018-07-31T07:18:49.099Z,26.40
2018-07-31T07:21:15.933Z,26.50
2018-07-31T07:23:42.814Z,26.50
2018-07-31T07:26:09.657Z,26.60
2018-07-31T07:28:36.647Z,26.50
2018-07-31T07:31:03.495Z,26.50
2018-07-31T07:33:30.364Z,26.60
2018-07-31T07:35:57.301Z,26.60
2018-07-31T07:38:24.305Z,26.70
2018-07-31T07:40:51.151Z,26.70
2018-07-31T07:43:17.992Z,26.80
2018-07-31T07:45:45.023Z,26.80
2018-07-31T07:48:12.049Z,26.80
2018-07-31T07:50:38.909Z,26.80
2018-07-31T07:53:05.819Z,26.90
2018-07-31T07:55:32.622Z,26.90
2018-07-31T07:57:59.636Z,27.00
2018-07-31T08:00:26.511Z,27.00
2018-07-31T08:02:53.367Z,27.00
2018-07-31T08:05:20.285Z,27.00
2018-07-31T08:07:47.158Z,27.10
2018-07-31T08:10:14.397Z,27.10
2018-07-31T08:12:41.430Z,27.10
2018-07-31T08:15:08.497Z,27.10
2018-07-31T08:17:35.420Z,27.10
2018-07-31T08:20:05.210Z,27.10
2018-07-31T08:22:32.323Z,27.20
2018-07-31T08:24:59.337Z,27.30
2018-07-31T08:27:26.263Z,27.30
2018-07-31T08:29:53.139Z,27.40
2018-07-31T08:32:20.772Z,27.40
2018-07-31T08:34:48.480Z,27.40
2018-07-31T08:37:15.549Z,27.30
2018-07-31T08:39:43.163Z,27.30
2018-07-31T08:47:12.749Z,27.60
2018-07-31T08:49:39.613Z,27.60
2018-07-31T08:52:06.674Z,27.60
2018-07-31T08:54:33.575Z,27.60
2018-07-31T08:57:00.603Z,27.60
2018-07-31T08:59:27.524Z,27.60
2018-07-31T09:01:54.610Z,27.80
2018-07-31T09:04:22.573Z,27.90
2018-07-31T09:06:49.644Z,27.70
2018-07-31T09:09:17.383Z,27.80
2018-07-31T09:11:44.688Z,27.70
2018-07-31T09:14:11.632Z,27.70
2018-07-31T09:16:38.582Z,27.80
2018-07-31T09:19:05.826Z,27.80
2018-07-31T09:21:32.750Z,27.80
2018-07-31T09:23:59.583Z,27.80
2018-07-31T09:26:26.502Z,27.80
2018-07-31T09:28:54.639Z,27.80
2018-07-31T09:31:22.920Z,27.90
2018-07-31T09:36:21.398Z,27.90
2018-07-31T09:38:48.493Z,27.90
2018-07-31T09:41:15.460Z,27.90
2018-07-31T09:43:42.652Z,28.00
2018-07-31T09:46:09.582Z,28.00
2018-07-31T09:48:36.712Z,28.00
2018-07-31T09:51:03.669Z,28.00
2018-07-31T09:53:30.578Z,28.10
2018-07-31T09:55:57.550Z,28.20
2018-07-31T09:58:26.566Z,28.20
2018-07-31T10:00:53.501Z,27.90
2018-07-31T10:03:20.436Z,27.80
2018-07-31T10:05:47.356Z,27.70
2018-07-31T10:08:14.353Z,27.60
2018-07-31T10:10:41.195Z,27.50
2018-07-31T10:13:08.226Z,27.50
2018-07-31T10:18:02.764Z,27.40
2018-07-31T10:20:29.898Z,27.40
2018-07-31T10:22:57.046Z,27.40
2018-07-31T10:25:24.494Z,27.40
2018-07-31T10:27:51.953Z,27.40
2018-07-31T10:30:18.940Z,27.40
2018-07-31T10:32:45.799Z,27.30
2018-07-31T10:35:12.750Z,27.40
2018-07-31T10:37:40.251Z,27.40
2018-07-31T10:40:07.167Z,27.40
2018-07-31T10:42:34.350Z,27.30
2018-07-31T10:45:01.298Z,27.30
2018-07-31T10:47:28.274Z,27.30
2018-07-31T10:49:55.664Z,27.30
2018-07-31T10:52:22.587Z,27.30
2018-07-31T10:54:49.546Z,27.30
2018-07-31T10:57:16.463Z,27.30
2018-07-31T10:59:43.421Z,27.40
2018-07-31T11:04:37.515Z,27.40
2018-07-31T11:07:04.464Z,27.40
2018-07-31T11:09:31.341Z,27.30
2018-07-31T11:11:58.293Z,27.30
2018-07-31T11:14:25.172Z,27.30
2018-07-31T11:16:52.030Z,27.30
2018-07-31T11:19:18.885Z,27.30
2018-07-31T11:21:45.755Z,27.30
2018-07-31T11:24:12.760Z,27.30
2018-07-31T11:26:39.644Z,27.40
2018-07-31T11:29:06.602Z,27.30
2018-07-31T11:31:33.736Z,27.30
2018-07-31T11:34:00.551Z,27.40
2018-07-31T11:36:27.483Z,27.30
2018-07-31T11:38:54.633Z,27.40
2018-07-31T11:41:21.464Z,27.40
2018-07-31T11:43:48.509Z,27.40
2018-07-31T11:46:15.407Z,27.40
2018-07-31T11:48:42.617Z,27.40
2018-07-31T11:51:09.611Z,27.40
2018-07-31T11:53:36.463Z,27.40
2018-07-31T11:56:03.397Z,27.40
2018-07-31T11:58:30.521Z,27.40
2018-07-31T12:00:57.420Z,27.30
2018-07-31T12:03:24.269Z,27.40
2018-07-31T12:05:51.207Z,27.40
2018-07-31T12:08:18.437Z,27.40
2018-07-31T12:10:45.302Z,27.40
2018-07-31T12:13:12.274Z,27.40
2018-07-31T12:15:39.263Z,27.40
2018-07-31T12:18:06.449Z,27.30
2018-07-31T12:20:33.283Z,27.40
2018-07-31T12:23:00.141Z,27.30
2018-07-31T12:25:27.016Z,27.30
2018-07-31T12:27:55.227Z,27.30
2018-07-31T12:30:22.183Z,27.30
2018-07-31T12:32:49.106Z,27.30
2018-07-31T12:35:15.989Z,27.30
2018-07-31T12:37:43.167Z,27.30
2018-07-31T12:40:10.155Z,27.30
2018-07-31T12:42:37.007Z,27.30
2018-07-31T12:45:03.873Z,27.30
2018-07-31T12:47:30.898Z,27.30
2018-07-31T12:49:57.830Z,27.30
2018-07-31T12:52:24.892Z,27.30
2018-07-31T12:54:51.934Z,27.30
2018-07-31T12:57:18.917Z,27.30
2018-07-31T12:59:45.901Z,27.30
2018-07-31T13:02:12.992Z,27.30
2018-07-31T13:04:39.806Z,27.30
2018-07-31T13:07:06.781Z,27.30
2018-07-31T13:09:33.648Z,27.30
2018-07-31T13:14:32.420Z,27.30
2018-07-31T13:16:59.335Z,27.30
2018-07-31T13:19:26.752Z,27.30
2018-07-31T13:21:53.705Z,27.30
2018-07-31T13:24:26.297Z,27.30
2018-07-31T13:29:20.642Z,27.30
2018-07-31T13:31:47.564Z,27.30
2018-07-31T13:34:14.421Z,27.30
2018-07-31T13:36:41.405Z,27.30
2018-07-31T13:39:14.628Z,27.30
2018-07-31T13:41:57.301Z,27.40
2018-07-31T13:44:24.336Z,27.40
2018-07-31T13:46:51.250Z,27.30
2018-07-31T13:49:18.156Z,27.40
2018-07-31T13:51:45.071Z,27.40
2018-07-31T13:54:11.877Z,27.40
2018-07-31T13:56:38.717Z,27.40
2018-07-31T13:59:05.699Z,27.40
2018-07-31T14:01:32.588Z,27.40
2018-07-31T14:03:59.359Z,27.40
2018-07-31T14:06:26.236Z,27.40
2018-07-31T14:08:53.169Z,27.40
2018-07-31T14:11:20.030Z,27.40
2018-07-31T14:13:47.013Z,27.40
2018-07-31T14:16:13.856Z,27.40
2018-07-31T14:18:40.878Z,27.40
2018-07-31T14:21:07.752Z,27.40
2018-07-31T14:23:34.638Z,27.40
2018-07-31T14:26:01.580Z,27.40
2018-07-31T14:28:28.598Z,27.40
2018-07-31T14:30:55.500Z,27.40
2018-07-31T14:33:22.457Z,27.40
2018-07-31T14:35:49.389Z,27.40
2018-07-31T14:38:16.353Z,27.40
2018-07-31T14:40:43.215Z,27.40
2018-07-31T14:43:10.162Z,27.40
2018-07-31T14:45:37.064Z,27.40
2018-07-31T14:48:04.193Z,27.40
2018-07-31T14:52:58.391Z,27.30
2018-07-31T14:55:25.385Z,27.40
2018-07-31T14:57:52.343Z,27.40
2018-07-31T15:00:19.288Z,27.40
2018-07-31T15:02:46.148Z,27.40
2018-07-31T15:05:13.633Z,27.40
2018-07-31T15:07:40.712Z,27.40
2018-07-31T15:10:07.581Z,27.40
2018-07-31T15:12:34.463Z,27.40
2018-07-31T15:15:01.328Z,27.40
2018-07-31T15:17:28.586Z,27.40
2018-07-31T15:19:55.460Z,27.40
2018-07-31T15:22:22.348Z,27.40
2018-07-31T15:24:49.348Z,27.40
2018-07-31T15:27:16.272Z,27.40
2018-07-31T15:29:43.190Z,27.40
2018-07-31T15:32:10.082Z,27.40
2018-07-31T15:34:37.038Z,27.40
2018-07-31T15:37:03.893Z,27.40
2018-07-31T15:39:30.813Z,27.40
2018-07-31T15:41:57.661Z,27.40
2018-07-31T15:44:24.805Z,27.40
2018-07-31T15:46:51.902Z,27.50
2018-07-31T15:49:18.950Z,27.50
2018-07-31T15:51:45.828Z,27.40
2018-07-31T15:54:12.706Z,27.50
2018-07-31T15:56:39.636Z,27.50
2018-07-31T15:59:06.683Z,27.40
2018-07-31T16:01:33.577Z,27.50
2018-07-31T16:04:00.417Z,27.50
2018-07-31T16:06:27.340Z,27.40
2018-07-31T16:08:54.204Z,27.40
2018-07-31T16:11:21.040Z,27.40
2018-07-31T16:13:48.142Z,27.50
2018-07-31T16:16:15.065Z,27.40
2018-07-31T16:18:42.031Z,27.40
2018-07-31T16:21:09.047Z,27.40
2018-07-31T16:23:36.010Z,27.50
2018-07-31T16:26:03.031Z,27.40
2018-07-31T16:28:30.125Z,27.40
2018-07-31T16:30:56.993Z,27.40
2018-07-31T16:33:23.961Z,27.40
2018-07-31T16:35:50.869Z,27.40
2018-07-31T16:38:17.802Z,27.40
2018-07-31T16:40:45.520Z,27.40
2018-07-31T16:43:12.420Z,27.40
2018-07-31T16:45:39.271Z,27.40
2018-07-31T16:48:06.357Z,27.40
2018-07-31T16:50:33.234Z,27.40
2018-07-31T16:53:00.085Z,27.30
2018-07-31T16:55:27.001Z,27.40
2018-07-31T16:57:53.970Z,27.40
2018-07-31T17:00:21.316Z,27.40
2018-07-31T17:05:15.948Z,27.40
2018-07-31T17:07:43.107Z,27.40
2018-07-31T17:10:10.846Z,27.40
2018-07-31T17:12:37.853Z,27.40
2018-07-31T17:15:04.935Z,27.40
2018-07-31T17:17:31.975Z,27.30
2018-07-31T17:19:58.896Z,27.30
2018-07-31T17:22:25.723Z,27.40
2018-07-31T17:24:52.668Z,27.30
2018-07-31T17:27:19.823Z,27.40
2018-07-31T17:29:46.777Z,27.40
2018-07-31T17:32:13.650Z,27.40
2018-07-31T17:34:40.551Z,27.40
2018-07-31T17:37:07.384Z,27.40
2018-07-31T17:39:34.240Z,27.40
2018-07-31T17:42:01.074Z,27.40
2018-07-31T17:44:27.981Z,27.40
2018-07-31T17:46:54.887Z,27.40
2018-07-31T17:49:21.784Z,27.40
2018-07-31T17:51:48.726Z,27.40
2018-07-31T17:54:15.893Z,27.40
2018-07-31T17:56:43.711Z,27.40
2018-07-31T17:59:10.722Z,27.40
2018-07-31T18:01:37.672Z,27.40
2018-07-31T18:04:04.585Z,27.40
2018-07-31T18:06:31.538Z,27.40
2018-07-31T18:08:58.643Z,27.40
2018-07-31T18:13:55.389Z,27.50
2018-07-31T18:16:22.297Z,27.50
2018-07-31T18:18:49.270Z,27.50
2018-07-31T18:21:16.306Z,27.50
2018-07-31T18:23:43.508Z,27.50
2018-07-31T18:26:10.431Z,27.50
2018-07-31T18:28:37.405Z,27.50
2018-07-31T18:31:04.324Z,27.50
2018-07-31T18:33:31.259Z,27.60
2018-07-31T18:35:58.210Z,27.60
2018-07-31T18:38:28.845Z,27.50
2018-07-31T18:40:56.069Z,27.60
2018-07-31T18:43:37.373Z,27.60
2018-07-31T18:46:04.929Z,27.70
2018-07-31T18:48:32.042Z,27.60
2018-07-31T18:50:59.031Z,27.60
2018-07-31T18:53:26.110Z,27.60
2018-07-31T18:55:52.961Z,27.60
2018-07-31T18:58:20.010Z,27.60
2018-07-31T19:00:46.963Z,27.60
2018-07-31T19:03:13.913Z,27.60
2018-07-31T19:05:40.816Z,27.60
2018-07-31T19:08:07.777Z,27.60
2018-07-31T19:10:34.646Z,27.60
2018-07-31T19:13:01.498Z,27.70
2018-07-31T19:15:29.136Z,27.60
2018-07-31T19:18:00.929Z,27.70
2018-07-31T19:20:33.064Z,27.70
2018-07-31T19:22:59.952Z,27.70
2018-07-31T19:25:26.997Z,27.70
2018-07-31T19:27:53.994Z,27.70
2018-07-31T19:30:21.530Z,27.70
2018-07-31T19:32:48.495Z,27.70
2018-07-31T19:35:15.373Z,27.60
2018-07-31T19:40:14.320Z,27.70
2018-07-31T19:45:08.567Z,27.70
2018-07-31T19:47:35.780Z,27.70
2018-07-31T19:50:04.490Z,27.70
2018-07-31T19:52:31.596Z,27.70
2018-07-31T19:54:58.551Z,27.70
2018-07-31T19:57:25.584Z,27.70
2018-07-31T19:59:53.571Z,27.70
2018-07-31T20:02:21.207Z,27.70
2018-07-31T20:04:48.236Z,27.70
2018-07-31T20:07:15.278Z,27.70
2018-07-31T20:09:42.428Z,27.70
2018-07-31T20:12:12.528Z,27.70
2018-07-31T20:14:39.621Z,27.70
2018-07-31T20:17:06.650Z,27.70
2018-07-31T20:19:45.599Z,27.70
2018-07-31T20:22:12.650Z,27.70
2018-07-31T20:24:39.580Z,27.70
2018-07-31T20:27:06.536Z,27.70
2018-07-31T20:29:33.581Z,27.70
2018-07-31T20:32:00.527Z,27.70
2018-07-31T20:34:27.500Z,27.80
2018-07-31T20:36:55.570Z,27.70
2018-07-31T20:39:22.538Z,27.80
2018-07-31T20:41:49.536Z,27.80
2018-07-31T20:44:16.481Z,27.80
2018-07-31T20:46:43.586Z,27.80
2018-07-31T20:49:10.528Z,27.80
2018-07-31T20:54:16.853Z,27.80
2018-07-31T20:56:43.842Z,27.80
2018-07-31T20:59:10.884Z,27.80
2018-07-31T21:01:37.954Z,27.80
2018-07-31T21:04:05.029Z,27.80
2018-07-31T21:09:46.852Z,27.80
2018-07-31T21:12:13.749Z,27.80
2018-07-31T21:14:41.340Z,27.80
2018-07-31T21:17:08.408Z,27.80
2018-07-31T21:19:36.528Z,27.80
2018-07-31T21:22:03.712Z,27.80
2018-07-31T21:24:30.676Z,27.80
2018-07-31T21:26:57.659Z,27.80
2018-07-31T21:29:24.565Z,27.80
2018-07-31T21:31:51.577Z,27.80
2018-07-31T21:34:18.431Z,27.80
2018-07-31T21:36:45.297Z,27.80
2018-07-31T21:39:13.146Z,27.80
2018-07-31T21:41:42.045Z,27.80
2018-07-31T21:44:09.922Z,27.80
2018-07-31T21:46:37.093Z,27.80
2018-07-31T21:49:05.062Z,27.80
2018-07-31T21:51:31.929Z,27.70
2018-07-31T21:53:58.922Z,27.70
2018-07-31T21:56:25.796Z,27.70
2018-07-31T21:58:52.752Z,27.70
2018-07-31T22:01:19.740Z,27.70
2018-07-31T22:03:46.637Z,27.70
2018-07-31T22:06:13.609Z,27.70
2018-07-31T22:08:40.638Z,27.70
2018-07-31T22:13:34.691Z,27.70
2018-07-31T22:16:01.636Z,27.70
2018-07-31T22:18:28.581Z,27.70
2018-07-31T22:20:55.420Z,27.70
2018-07-31T22:23:22.432Z,27.70
2018-07-31T22:25:49.364Z,27.70
2018-07-31T22:28:16.462Z,27.70
2018-07-31T22:30:43.406Z,27.70
2018-07-31T22:33:10.278Z,27.70
2018-07-31T22:35:37.224Z,27.60
2018-07-31T22:38:04.116Z,27.60
2018-07-31T22:40:31.011Z,27.60
2018-07-31T22:42:57.998Z,27.60
2018-07-31T22:45:24.867Z,27.60
2018-07-31T22:47:51.957Z,27.60
2018-07-31T22:50:18.865Z,27.60
2018-07-31T22:52:45.810Z,27.60
2018-07-31T22:55:12.752Z,27.60
2018-07-31T22:57:39.753Z,27.60
2018-07-31T23:00:06.708Z,27.60
2018-07-31T23:02:33.587Z,27.60
2018-07-31T23:05:00.490Z,27.60
2018-07-31T23:07:27.478Z,27.60
2018-07-31T23:09:54.293Z,27.60
2018-07-31T23:12:21.325Z,27.60
2018-07-31T23:14:48.181Z,27.50
2018-07-31T23:17:15.251Z,27.60
2018-07-31T23:19:42.227Z,27.60
2018-07-31T23:22:09.076Z,27.60
2018-07-31T23:24:35.917Z,27.50
2018-07-31T23:27:02.799Z,27.60
2018-07-31T23:29:29.715Z,27.50
2018-07-31T23:34:23.837Z,27.50
2018-07-31T23:36:50.710Z,27.50
2018-07-31T23:39:17.612Z,27.50
2018-07-31T23:41:44.599Z,27.50
2018-07-31T23:44:11.480Z,27.50
2018-07-31T23:46:38.330Z,27.50
2018-07-31T23:49:05.391Z,27.50
2018-07-31T23:51:32.276Z,27.50
2018-07-31T23:53:59.201Z,27.50
2018-07-31T23:56:26.199Z,27.50
2018-07-31T23:58:53.237Z,27.50
